All Spectrum Aviation - Van Nuys Airport - KVNY

HOME

Van Nuys Tower Recordings

Condor Squadron KVNY Webcam

Visit our Electronics Store

2015/07/04 03:51 KVNY 040351Z 22004KT 10SM CLR 26/11 A2984 RMK AO2 SLP097 T02560106 $
LATEST VAN NUYS ATIS IN MP3!
Older ATIS Recordings

Condor Squadron KVNY Webcam
Click to view larger images and timelapse / youtube videos!

HOME

Van Nuys Tower Recordings

Condor Squadron KVNY Webcam

Visit our Electronics Store